createdAt,value
2023-04-25T00:01:48.713Z,54.08
2023-04-25T00:04:16.927Z,54.05
2023-04-25T00:06:45.005Z,54.02
2023-04-25T00:09:12.974Z,54.28
2023-04-25T00:11:42.819Z,54.64
2023-04-25T00:14:11.001Z,54.30
2023-04-25T00:16:39.075Z,54.38
2023-04-25T00:19:07.453Z,54.54
2023-04-25T00:21:36.447Z,55.08
2023-04-25T00:24:04.687Z,54.86
2023-04-25T00:26:32.618Z,54.53
2023-04-25T00:29:01.905Z,55.84
2023-04-25T00:31:30.743Z,55.24
2023-04-25T00:33:58.811Z,54.86
2023-04-25T00:36:29.666Z,53.83
2023-04-25T00:38:57.949Z,53.18
2023-04-25T00:41:27.916Z,52.67
2023-04-25T00:43:57.968Z,52.84
2023-04-25T00:46:27.655Z,51.96
2023-04-25T00:48:55.702Z,51.46
2023-04-25T00:51:24.251Z,51.06
2023-04-25T00:53:52.567Z,51.22
2023-04-25T00:56:21.577Z,50.19
2023-04-25T00:58:50.447Z,50.20
2023-04-25T01:01:18.839Z,50.45
2023-04-25T01:03:48.891Z,50.06
2023-04-25T01:06:17.178Z,49.96
2023-04-25T01:08:45.269Z,49.58
2023-04-25T01:11:13.081Z,48.01
2023-04-25T01:13:41.001Z,47.60
2023-04-25T01:16:09.232Z,47.11
2023-04-25T01:18:38.275Z,46.98
2023-04-25T01:21:11.714Z,46.72
2023-04-25T01:23:41.210Z,46.29
2023-04-25T01:26:10.992Z,46.21
2023-04-25T01:28:42.225Z,46.42
2023-04-25T01:31:11.575Z,46.27
2023-04-25T01:33:40.079Z,46.17
2023-04-25T01:36:09.979Z,46.17
2023-04-25T01:38:38.071Z,46.78
2023-04-25T01:41:07.204Z,46.86
2023-04-25T01:43:35.414Z,46.64
2023-04-25T01:46:03.702Z,46.85
2023-04-25T01:48:31.685Z,47.50
2023-04-25T01:51:01.228Z,47.92
2023-04-25T01:53:31.726Z,48.46
2023-04-25T01:56:00.798Z,48.68
2023-04-25T01:58:33.757Z,49.51
2023-04-25T02:01:04.751Z,49.46
2023-04-25T02:03:40.625Z,49.76
2023-04-25T02:06:14.328Z,50.18
2023-04-25T02:08:46.713Z,49.78
2023-04-25T02:11:16.275Z,49.91
2023-04-25T02:13:50.448Z,50.68
2023-04-25T02:16:36.762Z,50.44
2023-04-25T02:19:05.226Z,50.96
2023-04-25T02:21:33.036Z,50.94
2023-04-25T02:24:02.408Z,50.63
2023-04-25T02:26:31.036Z,50.81
2023-04-25T02:28:59.228Z,51.15
2023-04-25T02:31:28.107Z,51.71
2023-04-25T02:33:56.726Z,51.62
2023-04-25T02:36:25.048Z,52.40
2023-04-25T02:38:52.951Z,52.80
2023-04-25T02:41:23.802Z,52.57
2023-04-25T02:43:52.011Z,52.81
2023-04-25T02:46:32.056Z,52.55
2023-04-25T02:49:06.180Z,52.24
2023-04-25T02:51:34.668Z,51.71
2023-04-25T02:54:02.756Z,52.04
2023-04-25T02:56:32.697Z,51.98
2023-04-25T02:59:01.011Z,51.63
2023-04-25T03:01:29.592Z,51.49
2023-04-25T03:03:57.760Z,51.18
2023-04-25T03:06:26.378Z,51.40
2023-04-25T03:08:54.326Z,51.41
2023-04-25T03:11:22.370Z,51.19
2023-04-25T03:13:51.850Z,50.52
2023-04-25T03:16:20.927Z,50.98
2023-04-25T03:18:48.862Z,50.49
2023-04-25T03:21:17.114Z,49.03
2023-04-25T03:23:45.646Z,48.95
2023-04-25T03:26:15.974Z,48.43
2023-04-25T03:28:44.575Z,48.07
2023-04-25T03:31:13.802Z,48.38
2023-04-25T03:33:41.751Z,48.04
2023-04-25T03:36:10.578Z,47.71
2023-04-25T03:38:38.462Z,48.02
2023-04-25T03:41:07.943Z,48.05
2023-04-25T03:43:54.192Z,48.07
2023-04-25T03:46:23.920Z,48.56
2023-04-25T03:48:51.999Z,48.46
2023-04-25T03:51:24.056Z,48.20
2023-04-25T03:53:52.110Z,48.89
2023-04-25T03:56:32.440Z,48.74
2023-04-25T03:59:07.438Z,48.76
2023-04-25T04:01:37.468Z,49.12
2023-04-25T04:04:06.043Z,49.45
2023-04-25T04:06:34.965Z,49.46
2023-04-25T04:09:17.830Z,49.47
2023-04-25T04:11:46.247Z,49.88
2023-04-25T04:14:14.001Z,50.17
2023-04-25T04:16:47.328Z,50.45
2023-04-25T04:19:15.522Z,50.35
2023-04-25T04:21:48.815Z,50.87
2023-04-25T04:24:17.747Z,50.95
2023-04-25T04:26:54.001Z,50.96
2023-04-25T04:29:32.165Z,51.23
2023-04-25T04:32:28.834Z,51.50
2023-04-25T04:34:56.993Z,51.38
2023-04-25T04:37:26.337Z,50.84
2023-04-25T04:39:54.281Z,51.77
2023-04-25T04:42:30.248Z,51.38
2023-04-25T04:45:17.211Z,51.25
2023-04-25T04:48:06.589Z,51.81
2023-04-25T04:50:56.313Z,52.08
2023-04-25T04:53:46.450Z,51.30
2023-04-25T04:56:37.106Z,51.16
2023-04-25T04:59:19.416Z,50.97
2023-04-25T05:02:06.004Z,51.38
2023-04-25T05:04:59.698Z,52.29
2023-04-25T05:07:37.599Z,54.23
2023-04-25T05:10:26.433Z,53.99
2023-04-25T05:13:12.948Z,54.64
2023-04-25T05:15:57.877Z,53.82
2023-04-25T05:18:37.455Z,53.11
2023-04-25T05:21:20.156Z,52.79
2023-04-25T05:24:09.018Z,51.75
2023-04-25T05:27:03.353Z,51.11
2023-04-25T05:29:47.257Z,50.39
2023-04-25T05:32:38.400Z,49.58
2023-04-25T05:35:08.039Z,49.19
2023-04-25T05:37:45.004Z,48.95
2023-04-25T05:40:15.331Z,48.85
2023-04-25T05:42:59.419Z,49.18
2023-04-25T05:45:52.108Z,49.54
2023-04-25T05:48:32.298Z,49.57
2023-04-25T05:51:11.419Z,49.72
2023-04-25T05:53:50.010Z,49.94
2023-04-25T05:56:18.253Z,50.50
2023-04-25T05:58:48.220Z,50.20
2023-04-25T06:01:16.175Z,50.42
2023-04-25T06:03:45.927Z,50.25
2023-04-25T06:06:14.090Z,50.08
2023-04-25T06:08:42.469Z,49.83
2023-04-25T06:11:14.390Z,49.18
2023-04-25T06:13:42.904Z,48.00
2023-04-25T06:16:11.277Z,47.62
2023-04-25T06:18:39.732Z,47.35
2023-04-25T06:21:07.668Z,47.20
2023-04-25T06:23:35.825Z,46.94
2023-04-25T06:26:06.077Z,47.54
2023-04-25T06:28:36.926Z,47.46
2023-04-25T06:31:05.000Z,47.04
2023-04-25T06:33:33.290Z,47.02
2023-04-25T06:36:01.559Z,46.99
2023-04-25T06:38:30.274Z,47.64
2023-04-25T06:40:59.066Z,47.95
2023-04-25T06:43:33.892Z,48.61
2023-04-25T06:46:21.866Z,48.47
2023-04-25T06:48:51.254Z,51.18
2023-04-25T06:51:23.565Z,52.54
2023-04-25T06:53:54.121Z,52.51
2023-04-25T06:56:30.850Z,53.73
2023-04-25T06:59:12.930Z,53.02
2023-04-25T07:01:43.623Z,51.17
2023-04-25T07:04:20.840Z,50.65
2023-04-25T07:06:56.368Z,50.14
2023-04-25T07:09:34.806Z,50.40
2023-04-25T07:12:03.808Z,50.35
2023-04-25T07:14:32.107Z,49.40
2023-04-25T07:17:04.028Z,48.76
2023-04-25T07:19:34.139Z,47.95
2023-04-25T07:22:03.661Z,47.43
2023-04-25T07:24:33.553Z,47.33
2023-04-25T07:27:02.462Z,47.44
2023-04-25T07:29:49.142Z,48.14
2023-04-25T07:32:18.647Z,48.11
2023-04-25T07:34:46.497Z,48.78
2023-04-25T07:37:15.354Z,47.98
2023-04-25T07:39:57.998Z,48.25
2023-04-25T07:42:25.967Z,49.20
2023-04-25T07:44:54.044Z,49.37
2023-04-25T07:47:25.126Z,49.40
2023-04-25T07:49:54.151Z,48.92
2023-04-25T07:52:23.113Z,48.50
2023-04-25T07:54:56.612Z,47.51
2023-04-25T07:57:32.411Z,47.82
2023-04-25T08:00:01.044Z,46.99
2023-04-25T08:02:32.381Z,47.75
2023-04-25T08:05:01.467Z,48.48
2023-04-25T08:07:31.642Z,49.22
2023-04-25T08:10:05.358Z,51.43
2023-04-25T08:12:36.226Z,53.54
2023-04-25T08:15:08.513Z,55.24
2023-04-25T08:17:41.493Z,55.71
2023-04-25T08:20:11.232Z,54.36
2023-04-25T08:22:39.418Z,53.33
2023-04-25T08:25:34.068Z,52.92
2023-04-25T08:28:04.152Z,52.83
2023-04-25T08:30:33.067Z,51.57
2023-04-25T08:33:03.113Z,52.02
2023-04-25T08:35:50.533Z,51.55
2023-04-25T08:38:19.705Z,50.89
2023-04-25T08:40:53.387Z,50.80
2023-04-25T08:43:22.708Z,51.03
2023-04-25T08:45:50.614Z,51.88
2023-04-25T08:48:36.772Z,50.57
2023-04-25T08:53:43.869Z,50.70
2023-04-25T08:56:15.422Z,50.29
2023-04-25T08:58:43.600Z,50.03
2023-04-25T09:01:12.067Z,50.10
2023-04-25T09:03:50.584Z,51.44
2023-04-25T09:06:21.424Z,52.08
2023-04-25T09:08:53.122Z,52.33
2023-04-25T09:11:23.509Z,53.03
2023-04-25T09:14:13.524Z,52.94
2023-04-25T09:17:01.920Z,51.80
2023-04-25T09:20:12.431Z,52.72
2023-04-25T09:22:41.434Z,53.63
2023-04-25T09:25:15.487Z,48.40
2023-04-25T09:27:55.611Z,47.83
2023-04-25T09:30:33.087Z,50.70
2023-04-25T09:33:08.802Z,50.33
2023-04-25T09:35:40.786Z,49.07
2023-04-25T09:38:13.177Z,47.55
2023-04-25T09:41:02.777Z,47.24
2023-04-25T09:43:41.885Z,45.59
2023-04-25T09:46:12.240Z,45.27
2023-04-25T09:48:51.449Z,46.20
2023-04-25T09:51:28.353Z,45.77
2023-04-25T09:53:58.083Z,46.27
2023-04-25T09:56:53.159Z,46.58
2023-04-25T09:59:23.951Z,46.55
2023-04-25T10:01:52.354Z,47.88
2023-04-25T10:04:33.964Z,47.90
2023-04-25T10:07:07.919Z,48.29
2023-04-25T10:09:40.450Z,48.46
2023-04-25T10:12:09.168Z,49.67
2023-04-25T10:14:37.102Z,51.70
2023-04-25T10:17:05.771Z,52.58
2023-04-25T10:19:34.775Z,52.30
2023-04-25T10:22:13.994Z,53.03
2023-04-25T10:24:43.126Z,51.88
2023-04-25T10:27:11.473Z,51.68
2023-04-25T10:29:39.544Z,50.98
2023-04-25T10:32:07.495Z,51.06
2023-04-25T10:34:42.981Z,49.75
2023-04-25T10:37:12.990Z,49.23
2023-04-25T10:39:42.424Z,49.06
2023-04-25T10:42:10.914Z,49.63
2023-04-25T10:44:40.329Z,50.17
2023-04-25T10:47:10.400Z,48.45
2023-04-25T10:49:44.344Z,48.84
2023-04-25T10:52:19.106Z,50.84
2023-04-25T10:54:52.356Z,51.19
2023-04-25T10:57:31.124Z,51.91
2023-04-25T11:00:07.399Z,51.92
2023-04-25T11:02:40.090Z,50.36
2023-04-25T11:05:09.074Z,50.51
2023-04-25T11:07:50.276Z,51.98
2023-04-25T11:10:27.647Z,48.43
2023-04-25T11:12:55.750Z,47.89
2023-04-25T11:15:24.960Z,45.12
2023-04-25T11:17:53.438Z,42.89
2023-04-25T11:20:21.845Z,43.59
2023-04-25T11:22:52.790Z,44.34
2023-04-25T11:25:22.080Z,44.58
2023-04-25T11:27:53.489Z,45.41
2023-04-25T11:30:23.097Z,44.13
2023-04-25T11:32:51.290Z,43.16
2023-04-25T11:35:19.228Z,43.77
2023-04-25T11:37:47.101Z,43.21
2023-04-25T11:40:16.620Z,44.39
2023-04-25T11:42:46.662Z,44.06
2023-04-25T11:45:15.200Z,44.94
2023-04-25T11:47:43.471Z,43.21
2023-04-25T11:50:12.568Z,42.53
2023-04-25T11:52:41.530Z,43.40
2023-04-25T11:55:11.658Z,42.81
2023-04-25T11:57:42.322Z,40.86
2023-04-25T12:00:15.845Z,41.25
2023-04-25T12:02:49.025Z,42.87
2023-04-25T12:07:49.114Z,42.41
2023-04-25T12:10:21.359Z,42.62
2023-04-25T12:12:50.888Z,42.75
2023-04-25T12:15:21.373Z,43.06
2023-04-25T12:17:50.772Z,42.65
2023-04-25T12:20:20.712Z,42.57
2023-04-25T12:22:49.931Z,41.17
2023-04-25T12:25:39.406Z,40.34
2023-04-25T12:28:16.430Z,41.13
2023-04-25T12:30:58.856Z,42.53
2023-04-25T12:33:28.185Z,43.68
2023-04-25T12:35:56.956Z,43.91
2023-04-25T12:38:30.359Z,43.36
2023-04-25T12:40:58.564Z,43.48
2023-04-25T12:43:28.482Z,43.42
2023-04-25T12:45:57.793Z,44.48
2023-04-25T12:48:26.183Z,42.88
2023-04-25T12:50:54.712Z,43.58
2023-04-25T12:53:23.692Z,41.82
2023-04-25T12:55:52.803Z,41.13
2023-04-25T12:58:21.614Z,42.69
2023-04-25T13:00:51.015Z,43.52
2023-04-25T13:03:19.819Z,43.93
2023-04-25T13:05:48.085Z,43.45
2023-04-25T13:08:16.383Z,40.79
2023-04-25T13:10:44.719Z,40.88
2023-04-25T13:13:12.599Z,39.48
2023-04-25T13:15:40.625Z,40.36
2023-04-25T13:18:10.286Z,40.78
2023-04-25T13:20:38.209Z,41.00
2023-04-25T13:23:06.517Z,41.85
2023-04-25T13:25:35.180Z,40.89
2023-04-25T13:28:04.036Z,41.85
2023-04-25T13:30:32.093Z,42.71
2023-04-25T13:33:04.423Z,43.00
2023-04-25T13:35:34.833Z,42.46
2023-04-25T13:38:02.815Z,42.48
2023-04-25T13:40:31.077Z,41.28
2023-04-25T13:42:58.981Z,41.72
2023-04-25T13:45:27.362Z,42.52
2023-04-25T13:47:55.445Z,42.57
2023-04-25T13:50:23.702Z,41.42
2023-04-25T13:52:52.874Z,38.91
2023-04-25T13:55:21.236Z,38.67
2023-04-25T13:57:49.198Z,39.14
2023-04-25T14:00:18.269Z,40.67
2023-04-25T14:05:14.455Z,39.61
2023-04-25T14:07:42.425Z,40.60
2023-04-25T14:10:12.342Z,41.91
2023-04-25T14:12:40.120Z,42.84
2023-04-25T14:15:08.744Z,42.74
2023-04-25T14:17:36.551Z,43.60
2023-04-25T14:20:06.846Z,40.28
2023-04-25T14:22:34.882Z,39.50
2023-04-25T14:25:02.667Z,39.95
2023-04-25T14:27:31.904Z,40.96
2023-04-25T14:29:59.875Z,39.48
2023-04-25T14:32:27.729Z,38.90
2023-04-25T14:34:55.733Z,39.25
2023-04-25T14:37:23.539Z,39.92
2023-04-25T14:39:51.369Z,40.67
2023-04-25T14:42:19.176Z,41.72
2023-04-25T14:44:48.324Z,44.05
2023-04-25T14:47:16.695Z,45.17
2023-04-25T14:49:44.549Z,44.85
2023-04-25T14:52:12.382Z,43.61
2023-04-25T14:54:40.105Z,42.99
2023-04-25T14:57:08.802Z,41.87
2023-04-25T14:59:36.818Z,41.86
2023-04-25T15:02:06.154Z,41.85
2023-04-25T15:04:34.338Z,41.67
2023-04-25T15:07:02.292Z,41.32
2023-04-25T15:09:30.312Z,40.23
2023-04-25T15:11:59.120Z,40.80
2023-04-25T15:14:26.957Z,40.18
2023-04-25T15:16:54.878Z,38.71
2023-04-25T15:19:24.375Z,38.88
2023-04-25T15:21:52.263Z,38.83
2023-04-25T15:24:20.264Z,39.08
2023-04-25T15:26:48.130Z,37.91
2023-04-25T15:29:16.488Z,38.90
2023-04-25T15:31:44.468Z,40.21
2023-04-25T15:34:12.446Z,39.12
2023-04-25T15:36:41.626Z,39.46
2023-04-25T15:39:09.521Z,39.03
2023-04-25T15:41:38.203Z,39.10
2023-04-25T15:44:07.912Z,37.89
2023-04-25T15:46:36.500Z,38.83
2023-04-25T15:49:06.066Z,39.76
2023-04-25T15:51:36.240Z,40.49
2023-04-25T15:54:06.759Z,41.07
2023-04-25T15:56:36.014Z,42.83
2023-04-25T15:59:04.301Z,44.11
2023-04-25T16:01:33.284Z,42.85
2023-04-25T16:04:01.885Z,41.91
2023-04-25T16:06:30.483Z,40.47
2023-04-25T16:08:58.527Z,39.04
2023-04-25T16:11:27.842Z,38.69
2023-04-25T16:13:55.680Z,39.18
2023-04-25T16:16:23.540Z,38.35
2023-04-25T16:18:51.419Z,39.28
2023-04-25T16:22:36.887Z,38.97
2023-04-25T16:25:31.140Z,38.08
2023-04-25T16:28:39.687Z,38.68
2023-04-25T16:31:07.843Z,38.35
2023-04-25T16:33:35.841Z,38.21
2023-04-25T16:36:04.124Z,39.46
2023-04-25T16:38:31.857Z,39.90
2023-04-25T16:40:59.941Z,39.93
2023-04-25T16:43:29.147Z,39.83
2023-04-25T16:45:56.951Z,40.17
2023-04-25T16:48:25.194Z,40.41
2023-04-25T16:50:53.359Z,40.76
2023-04-25T16:53:22.078Z,40.95
2023-04-25T16:55:50.186Z,40.50
2023-04-25T16:58:18.077Z,40.29
2023-04-25T17:00:47.996Z,40.58
2023-04-25T17:03:17.169Z,41.46
2023-04-25T17:05:45.024Z,42.10
2023-04-25T17:08:12.925Z,41.91
2023-04-25T17:10:40.846Z,43.92
2023-04-25T17:13:08.742Z,44.99
2023-04-25T17:15:36.511Z,45.86
2023-04-25T17:18:06.042Z,45.65
2023-04-25T17:20:34.069Z,44.71
2023-04-25T17:23:02.215Z,45.46
2023-04-25T17:25:30.462Z,44.10
2023-04-25T17:27:58.279Z,44.63
2023-04-25T17:30:26.872Z,44.73
2023-04-25T17:32:54.804Z,45.01
2023-04-25T17:35:24.659Z,44.98
2023-04-25T17:37:52.636Z,45.38
2023-04-25T17:40:20.998Z,45.46
2023-04-25T17:42:49.012Z,44.81
2023-04-25T17:45:17.493Z,45.20
2023-04-25T17:47:45.561Z,45.43
2023-04-25T17:50:16.600Z,45.07
2023-04-25T17:52:48.151Z,45.63
2023-04-25T17:55:15.978Z,44.81
2023-04-25T17:57:43.736Z,44.72
2023-04-25T18:00:13.011Z,43.92
2023-04-25T18:02:41.558Z,44.70
2023-04-25T18:05:10.909Z,44.48
2023-04-25T18:07:39.035Z,43.98
2023-04-25T18:10:10.522Z,43.24
2023-04-25T18:12:38.489Z,43.20
2023-04-25T18:15:07.631Z,43.19
2023-04-25T18:17:39.907Z,44.05
2023-04-25T18:20:11.988Z,43.53
2023-04-25T18:22:39.839Z,43.77
2023-04-25T18:25:11.021Z,44.25
2023-04-25T18:27:39.372Z,43.80
2023-04-25T18:30:10.901Z,43.87
2023-04-25T18:32:39.947Z,44.53
2023-04-25T18:35:10.330Z,44.98
2023-04-25T18:37:39.631Z,45.62
2023-04-25T18:40:13.870Z,46.45
2023-04-25T18:42:41.888Z,46.76
2023-04-25T18:45:11.042Z,46.97
2023-04-25T18:47:38.992Z,46.05
2023-04-25T18:50:08.166Z,45.33
2023-04-25T18:52:36.369Z,44.81
2023-04-25T18:55:05.091Z,45.65
2023-04-25T18:57:34.797Z,46.33
2023-04-25T19:00:06.783Z,46.54
2023-04-25T19:02:36.993Z,47.51
2023-04-25T19:05:06.129Z,48.44
2023-04-25T19:07:34.118Z,48.68
2023-04-25T19:10:02.264Z,49.09
2023-04-25T19:12:30.195Z,49.31
2023-04-25T19:14:59.459Z,49.84
2023-04-25T19:17:29.042Z,50.14
2023-04-25T19:19:58.198Z,50.81
2023-04-25T19:22:27.459Z,50.77
2023-04-25T19:25:03.043Z,51.36
2023-04-25T19:27:38.134Z,51.90
2023-04-25T19:30:09.039Z,52.37
2023-04-25T19:32:38.126Z,52.41
2023-04-25T19:35:10.941Z,52.35
2023-04-25T19:37:45.714Z,52.73
2023-04-25T19:40:14.919Z,52.67
2023-04-25T19:42:42.833Z,52.68
2023-04-25T19:45:13.210Z,52.31
2023-04-25T19:47:41.946Z,52.29
2023-04-25T19:50:10.814Z,53.02
2023-04-25T19:52:39.537Z,51.85
2023-04-25T19:55:09.776Z,51.28
2023-04-25T19:57:38.031Z,50.40
2023-04-25T20:00:10.791Z,50.55
2023-04-25T20:02:45.275Z,50.39
2023-04-25T20:05:15.431Z,49.84
2023-04-25T20:07:43.542Z,49.45
2023-04-25T20:10:13.967Z,48.84
2023-04-25T20:12:45.154Z,48.54
2023-04-25T20:15:13.292Z,48.00
2023-04-25T20:17:41.828Z,48.16
2023-04-25T20:20:12.574Z,48.11
2023-04-25T20:22:41.114Z,48.32
2023-04-25T20:25:10.859Z,48.34
2023-04-25T20:27:38.900Z,47.95
2023-04-25T20:30:08.484Z,48.07
2023-04-25T20:32:36.784Z,48.55
2023-04-25T20:35:07.280Z,48.53
2023-04-25T20:37:37.572Z,48.94
2023-04-25T20:40:07.556Z,49.07
2023-04-25T20:42:36.296Z,49.37
2023-04-25T20:45:07.530Z,49.22
2023-04-25T20:47:36.030Z,49.64
2023-04-25T20:50:06.091Z,49.46
2023-04-25T20:52:35.409Z,49.93
2023-04-25T20:55:05.353Z,49.17
2023-04-25T20:57:35.665Z,50.04
2023-04-25T21:00:11.893Z,49.99
2023-04-25T21:02:39.815Z,49.25
2023-04-25T21:05:08.295Z,49.79
2023-04-25T21:07:36.635Z,49.80
2023-04-25T21:10:06.748Z,49.64
2023-04-25T21:12:35.586Z,51.09
2023-04-25T21:15:04.632Z,51.00
2023-04-25T21:17:32.572Z,51.46
2023-04-25T21:20:00.410Z,51.58
2023-04-25T21:22:28.646Z,51.20
2023-04-25T21:24:57.213Z,51.35
2023-04-25T21:27:26.506Z,50.75
2023-04-25T21:29:54.415Z,50.76
2023-04-25T21:32:22.306Z,51.15
2023-04-25T21:34:50.165Z,51.18
2023-04-25T21:37:17.989Z,50.53
2023-04-25T21:39:48.022Z,50.86
2023-04-25T21:42:15.825Z,51.04
2023-04-25T21:44:45.041Z,51.41
2023-04-25T21:47:12.915Z,50.65
2023-04-25T21:49:41.122Z,50.76
2023-04-25T21:52:09.679Z,49.99
2023-04-25T21:54:37.495Z,50.46
2023-04-25T21:57:05.341Z,50.32
2023-04-25T21:59:33.153Z,50.16
2023-04-25T22:02:02.343Z,50.93
2023-04-25T22:04:31.001Z,51.31
2023-04-25T22:06:59.080Z,51.35
2023-04-25T22:09:27.146Z,50.77
2023-04-25T22:11:55.246Z,51.03
2023-04-25T22:14:25.076Z,51.04
2023-04-25T22:16:54.276Z,51.23
2023-04-25T22:19:23.431Z,51.45
2023-04-25T22:21:51.260Z,51.67
2023-04-25T22:24:19.198Z,51.72
2023-04-25T22:26:47.003Z,50.76
2023-04-25T22:29:14.810Z,51.16
2023-04-25T22:31:43.135Z,51.43
2023-04-25T22:34:10.917Z,50.34
2023-04-25T22:36:40.010Z,50.47
2023-04-25T22:39:08.883Z,49.57
2023-04-25T22:41:37.140Z,49.75
2023-04-25T22:44:05.142Z,50.27
2023-04-25T22:46:33.033Z,49.20
2023-04-25T22:49:01.383Z,50.08
2023-04-25T22:51:31.125Z,49.63
2023-04-25T22:54:00.857Z,49.68
2023-04-25T22:56:30.732Z,49.08
2023-04-25T22:58:58.512Z,49.82
2023-04-25T23:01:27.927Z,50.41
2023-04-25T23:03:56.888Z,49.94
2023-04-25T23:06:24.852Z,49.47
2023-04-25T23:08:52.934Z,48.48
2023-04-25T23:11:23.819Z,49.51
2023-04-25T23:13:51.561Z,49.37
2023-04-25T23:16:19.298Z,49.58
2023-04-25T23:18:47.095Z,49.82
2023-04-25T23:21:14.830Z,51.22
2023-04-25T23:23:42.676Z,51.54
2023-04-25T23:26:11.053Z,53.34
2023-04-25T23:28:48.951Z,54.11
2023-04-25T23:31:17.087Z,53.81
2023-04-25T23:33:44.938Z,53.51
2023-04-25T23:36:19.839Z,53.18
2023-04-25T23:38:47.689Z,53.39
2023-04-25T23:41:15.734Z,53.29
2023-04-25T23:43:45.143Z,53.64
2023-04-25T23:46:13.601Z,54.10
2023-04-25T23:48:41.674Z,54.30
2023-04-25T23:51:09.615Z,54.16
2023-04-25T23:53:37.330Z,54.41
2023-04-25T23:56:05.938Z,55.05
2023-04-25T23:58:33.783Z,55.48
